createdAt,value
2022-09-22T00:01:39.077Z,102298.22
2022-09-22T00:04:13.557Z,102300.03
2022-09-22T00:06:48.275Z,102299.03
2022-09-22T00:09:18.875Z,102300.75
2022-09-22T00:11:49.555Z,102306.09
2022-09-22T00:14:20.686Z,102290.19
2022-09-22T00:16:51.506Z,102292.06
2022-09-22T00:19:23.736Z,102304.66
2022-09-22T00:21:58.168Z,102297.59
2022-09-22T00:24:31.937Z,102301.22
2022-09-22T00:27:01.272Z,102297.59
2022-09-22T00:29:33.506Z,102292.38
2022-09-22T00:32:07.189Z,102296.91
2022-09-22T00:34:37.958Z,102294.34
2022-09-22T00:37:09.510Z,102293.56
2022-09-22T00:39:38.275Z,102296.50
2022-09-22T00:42:07.166Z,102299.22
2022-09-22T00:44:40.207Z,102298.75
2022-09-22T00:47:30.948Z,102298.19
2022-09-22T00:50:07.397Z,102301.06
2022-09-22T00:52:40.415Z,102289.88
2022-09-22T00:55:14.624Z,102288.25
2022-09-22T00:57:46.328Z,102290.44
2022-09-22T01:00:16.450Z,102292.59
2022-09-22T01:02:50.469Z,102290.22
2022-09-22T01:05:23.990Z,102287.00
2022-09-22T01:07:53.118Z,102288.09
2022-09-22T01:10:21.465Z,102284.72
2022-09-22T01:12:58.939Z,102287.28
2022-09-22T01:15:36.105Z,102290.06
2022-09-22T01:18:16.191Z,102284.50
2022-09-22T01:21:15.898Z,102284.50
2022-09-22T01:24:14.055Z,102284.28
2022-09-22T01:27:04.978Z,102285.28
2022-09-22T01:30:06.750Z,102284.50
2022-09-22T01:32:47.000Z,102281.88
2022-09-22T01:35:26.011Z,102282.81
2022-09-22T01:38:04.815Z,102271.25
2022-09-22T01:40:39.529Z,102274.03
2022-09-22T01:43:17.202Z,102265.13
2022-09-22T01:45:49.674Z,102276.75
2022-09-22T01:48:24.955Z,102275.00
2022-09-22T01:50:59.800Z,102278.56
2022-09-22T01:53:38.016Z,102276.59
2022-09-22T01:56:11.255Z,102273.00
2022-09-22T01:58:44.974Z,102272.78
2022-09-22T02:01:17.079Z,102277.94
2022-09-22T02:03:59.275Z,102273.63
2022-09-22T02:06:39.536Z,102267.41
2022-09-22T02:09:13.099Z,102259.63
2022-09-22T02:11:48.169Z,102258.16
2022-09-22T02:14:17.783Z,102262.72
2022-09-22T02:16:46.327Z,102259.09
2022-09-22T02:19:20.969Z,102259.03
2022-09-22T02:21:50.675Z,102259.25
2022-09-22T02:24:30.158Z,102277.16
2022-09-22T02:27:00.265Z,102269.94
2022-09-22T02:29:34.374Z,102270.94
2022-09-22T02:32:06.866Z,102270.81
2022-09-22T02:34:36.827Z,102266.19
2022-09-22T02:37:13.593Z,102270.75
2022-09-22T02:39:49.170Z,102267.97
2022-09-22T02:42:29.247Z,102274.22
2022-09-22T02:45:06.797Z,102265.41
2022-09-22T02:47:41.764Z,102269.94
2022-09-22T02:50:14.926Z,102263.72
2022-09-22T02:52:43.598Z,102271.75
2022-09-22T02:55:15.849Z,102267.34
2022-09-22T02:57:44.725Z,102272.69
2022-09-22T03:00:14.362Z,102272.63
2022-09-22T03:02:42.853Z,102274.38
2022-09-22T03:05:13.107Z,102261.88
2022-09-22T03:07:42.106Z,102268.84
2022-09-22T03:10:12.764Z,102264.38
2022-09-22T03:13:02.437Z,102264.31
2022-09-22T03:15:31.699Z,102251.88
2022-09-22T03:18:00.094Z,102255.38
2022-09-22T03:20:30.581Z,102256.13
2022-09-22T03:22:59.001Z,102259.63
2022-09-22T03:25:27.881Z,102251.53
2022-09-22T03:27:57.345Z,102251.38
2022-09-22T03:30:28.724Z,102251.19
2022-09-22T03:32:58.289Z,102254.63
2022-09-22T03:35:26.778Z,102252.88
2022-09-22T03:37:56.483Z,102252.06
2022-09-22T03:40:25.344Z,102254.63
2022-09-22T03:42:54.121Z,102249.28
2022-09-22T03:45:22.927Z,102249.38
2022-09-22T03:47:51.760Z,102250.38
2022-09-22T03:50:20.769Z,102246.13
2022-09-22T03:52:51.045Z,102244.38
2022-09-22T03:55:21.828Z,102239.81
2022-09-22T03:57:51.456Z,102237.22
2022-09-22T04:00:20.696Z,102245.25
2022-09-22T04:02:49.237Z,102241.69
2022-09-22T04:05:17.791Z,102243.50
2022-09-22T04:15:23.370Z,102238.56
2022-09-22T04:18:38.043Z,102244.00
2022-09-22T04:21:59.015Z,102252.16
2022-09-22T04:36:25.219Z,102237.91
2022-09-22T04:39:35.793Z,102235.66
2022-09-22T04:42:16.501Z,102224.44
2022-09-22T04:44:46.622Z,102231.78
2022-09-22T04:47:16.082Z,102231.69
2022-09-22T04:49:47.082Z,102229.00
2022-09-22T04:52:16.088Z,102230.00
2022-09-22T04:54:45.325Z,102222.50
2022-09-22T04:57:17.190Z,102225.13
2022-09-22T04:59:49.431Z,102229.88
2022-09-22T05:02:20.866Z,102225.06
2022-09-22T05:05:04.711Z,102234.97
2022-09-22T05:07:33.384Z,102229.16
2022-09-22T05:10:02.955Z,102237.63
2022-09-22T05:12:31.698Z,102238.06
2022-09-22T05:15:00.670Z,102240.97
2022-09-22T05:17:29.900Z,102237.53
2022-09-22T05:19:59.806Z,102230.53
2022-09-22T05:22:28.390Z,102233.06
2022-09-22T05:24:56.849Z,102241.97
2022-09-22T05:27:26.703Z,102240.25
2022-09-22T05:29:55.467Z,102243.72
2022-09-22T05:32:23.652Z,102243.47
2022-09-22T05:34:53.417Z,102246.81
2022-09-22T05:37:25.662Z,102246.81
2022-09-22T05:39:54.303Z,102250.16
2022-09-22T05:42:38.341Z,102249.22
2022-09-22T05:45:07.954Z,102255.09
2022-09-22T05:47:39.134Z,102256.69
2022-09-22T05:50:10.308Z,102254.72
2022-09-22T05:52:41.829Z,102263.31
2022-09-22T05:55:13.146Z,102260.53
2022-09-22T05:57:44.211Z,102255.81
2022-09-22T06:00:14.480Z,102268.13
2022-09-22T06:02:47.423Z,102254.41
2022-09-22T06:05:19.465Z,102263.84
2022-09-22T06:07:59.960Z,102272.19
2022-09-22T06:10:29.866Z,102268.13
2022-09-22T06:13:02.033Z,102276.53
2022-09-22T06:15:35.905Z,102273.31
2022-09-22T06:18:15.158Z,102271.53
2022-09-22T06:20:45.244Z,102275.91
2022-09-22T06:23:17.889Z,102278.53
2022-09-22T06:25:46.441Z,102276.66
2022-09-22T06:28:20.176Z,102285.72
2022-09-22T06:30:50.225Z,102287.66
2022-09-22T06:33:21.886Z,102289.88
2022-09-22T06:35:55.324Z,102291.00
2022-09-22T06:38:26.971Z,102293.22
2022-09-22T06:41:01.452Z,102289.44
2022-09-22T06:43:30.442Z,102289.75
2022-09-22T06:46:03.129Z,102293.47
2022-09-22T06:48:32.308Z,102289.72
2022-09-22T06:51:05.219Z,102296.78
2022-09-22T06:53:35.409Z,102301.47
2022-09-22T06:56:06.118Z,102292.34
2022-09-22T06:58:52.410Z,102260.22
2022-09-22T07:01:31.478Z,102201.97
2022-09-22T07:04:01.246Z,102187.72
2022-09-22T07:06:31.572Z,102175.88
2022-09-22T07:09:02.292Z,102178.94
2022-09-22T07:11:32.777Z,102179.97
2022-09-22T07:14:04.624Z,102184.84
2022-09-22T07:16:33.277Z,102184.44
2022-09-22T07:19:02.131Z,102181.03
2022-09-22T07:21:35.337Z,102177.69
2022-09-22T07:24:08.486Z,102187.94
2022-09-22T07:26:44.158Z,102182.28
2022-09-22T07:29:16.782Z,102195.50
2022-09-22T07:31:45.696Z,102189.84
2022-09-22T07:34:14.213Z,102182.84
2022-09-22T07:36:42.507Z,102181.75
2022-09-22T07:39:13.864Z,102192.66
2022-09-22T07:41:45.109Z,102181.75
2022-09-22T07:44:32.925Z,102186.41
2022-09-22T07:47:03.150Z,102196.72
2022-09-22T07:49:32.852Z,102194.09
2022-09-22T07:52:01.222Z,102181.13
2022-09-22T07:54:34.268Z,102185.41
2022-09-22T07:57:12.277Z,102179.47
2022-09-22T07:59:44.140Z,102181.06
2022-09-22T08:02:15.173Z,102178.28
2022-09-22T08:04:44.033Z,102169.75
2022-09-22T08:07:13.201Z,102170.78
2022-09-22T08:09:43.345Z,102166.34
2022-09-22T08:12:15.460Z,102160.34
2022-09-22T08:14:44.099Z,102172.00
2022-09-22T08:17:13.236Z,102169.19
2022-09-22T08:19:41.804Z,102168.88
2022-09-22T08:22:13.660Z,102162.56
2022-09-22T08:24:45.219Z,102156.66
2022-09-22T08:27:21.874Z,102157.19
2022-09-22T08:29:51.041Z,102158.78
2022-09-22T08:32:20.298Z,102153.06
2022-09-22T08:34:48.953Z,102151.47
2022-09-22T08:37:18.357Z,102156.34
2022-09-22T08:39:48.951Z,102143.13
2022-09-22T08:42:25.944Z,102141.38
2022-09-22T08:45:07.250Z,102137.41
2022-09-22T08:47:59.893Z,102136.81
2022-09-22T08:50:56.232Z,102147.28
2022-09-22T08:53:25.365Z,102140.06
2022-09-22T08:56:07.628Z,102143.59
2022-09-22T08:58:43.195Z,102139.09
2022-09-22T09:01:31.015Z,102145.41
2022-09-22T09:04:18.078Z,102147.97
2022-09-22T09:06:52.975Z,102141.69
2022-09-22T09:09:43.791Z,102149.41
2022-09-22T09:12:45.357Z,102139.09
2022-09-22T09:15:28.911Z,102132.22
2022-09-22T09:18:03.881Z,102140.44
2022-09-22T09:20:39.184Z,102137.50
2022-09-22T09:23:14.549Z,102130.84
2022-09-22T09:25:44.567Z,102144.97
2022-09-22T09:28:18.880Z,102145.66
2022-09-22T09:30:52.437Z,102135.44
2022-09-22T09:33:30.333Z,102137.78
2022-09-22T09:35:59.976Z,102133.34
2022-09-22T09:38:32.427Z,102138.44
2022-09-22T09:41:11.009Z,102133.63
2022-09-22T09:43:45.226Z,102140.06
2022-09-22T09:46:27.761Z,102133.06
2022-09-22T09:49:10.796Z,102143.16
2022-09-22T09:51:46.117Z,102135.25
2022-09-22T09:54:17.889Z,102122.91
2022-09-22T09:57:11.479Z,102120.00
2022-09-22T10:00:00.586Z,102142.88
2022-09-22T10:02:33.153Z,102130.56
2022-09-22T10:05:03.368Z,102125.63
2022-09-22T10:07:40.925Z,102117.50
2022-09-22T10:10:32.987Z,102113.97
2022-09-22T10:13:26.061Z,102108.59
2022-09-22T10:16:22.032Z,102108.66
2022-09-22T10:18:52.080Z,102104.88
2022-09-22T10:21:22.043Z,102107.81
2022-09-22T10:23:51.773Z,102111.56
2022-09-22T10:26:23.523Z,102108.50
2022-09-22T10:29:10.719Z,102108.22
2022-09-22T10:31:42.440Z,102109.59
2022-09-22T10:34:31.464Z,102104.38
2022-09-22T10:37:04.105Z,102106.78
2022-09-22T10:39:54.568Z,102096.69
2022-09-22T10:42:32.004Z,102111.22
2022-09-22T10:45:07.876Z,102103.69
2022-09-22T10:47:57.608Z,102097.69
2022-09-22T10:50:57.580Z,102096.50
2022-09-22T10:53:43.006Z,102088.13
2022-09-22T10:56:20.363Z,102081.41
2022-09-22T10:59:17.394Z,102085.00
2022-09-22T11:02:00.762Z,102086.69
2022-09-22T11:05:00.762Z,102088.75
2022-09-22T11:08:08.218Z,102090.72
2022-09-22T11:11:02.999Z,102077.81
2022-09-22T11:13:45.727Z,102074.38
2022-09-22T11:16:29.333Z,102072.38
2022-09-22T11:19:15.733Z,102068.28
2022-09-22T11:22:05.576Z,102061.03
2022-09-22T11:24:52.586Z,102062.16
2022-09-22T11:27:27.687Z,102063.41
2022-09-22T11:30:11.585Z,102064.19
2022-09-22T11:33:08.457Z,102060.72
2022-09-22T11:36:01.632Z,102056.56
2022-09-22T11:38:59.872Z,102057.72
2022-09-22T11:42:09.421Z,102053.34
2022-09-22T11:44:43.997Z,102054.03
2022-09-22T11:47:39.610Z,102044.47
2022-09-22T11:50:26.138Z,102049.00
2022-09-22T11:53:09.930Z,102050.41
2022-09-22T11:55:48.290Z,102050.56
2022-09-22T11:58:22.864Z,102044.72
2022-09-22T12:00:57.846Z,102041.09
2022-09-22T12:03:32.387Z,102043.59
2022-09-22T12:06:12.285Z,102033.19
2022-09-22T12:08:47.653Z,102036.81
2022-09-22T12:11:22.699Z,102025.59
2022-09-22T12:13:53.689Z,102031.34
2022-09-22T12:16:27.645Z,102027.91
2022-09-22T12:19:02.700Z,102028.47
2022-09-22T12:21:47.057Z,102018.47
2022-09-22T12:24:16.097Z,102013.66
2022-09-22T12:26:49.211Z,102011.28
2022-09-22T12:29:28.160Z,102009.97
2022-09-22T12:31:59.158Z,101996.50
2022-09-22T12:34:30.625Z,101988.38
2022-09-22T12:37:09.681Z,102003.38
2022-09-22T12:39:43.641Z,102005.59
2022-09-22T12:42:22.745Z,102005.59
2022-09-22T12:44:54.892Z,101993.81
2022-09-22T12:47:30.199Z,102001.72
2022-09-22T12:50:00.350Z,101987.84
2022-09-22T12:53:02.968Z,101998.84
2022-09-22T12:55:38.758Z,102002.25
2022-09-22T12:58:44.332Z,101986.28
2022-09-22T13:01:33.756Z,101995.66
2022-09-22T13:04:23.850Z,102000.66
2022-09-22T13:06:59.554Z,101983.25
2022-09-22T13:09:31.942Z,101979.84
2022-09-22T13:12:29.780Z,101979.97
2022-09-22T13:15:02.714Z,101976.78
2022-09-22T13:17:37.466Z,101987.34
2022-09-22T13:20:16.219Z,101979.47
2022-09-22T13:22:45.627Z,101978.81
2022-09-22T13:25:23.317Z,101982.34
2022-09-22T13:28:05.399Z,101976.72
2022-09-22T13:30:35.951Z,101973.53
2022-09-22T13:33:04.855Z,101968.59
2022-09-22T13:35:37.819Z,101971.44
2022-09-22T13:38:07.382Z,101969.31
2022-09-22T13:40:36.131Z,101965.06
2022-09-22T13:43:10.970Z,101967.25
2022-09-22T13:45:41.617Z,101947.94
2022-09-22T13:48:16.095Z,101963.91
2022-09-22T13:50:54.526Z,101955.81
2022-09-22T13:53:23.620Z,101959.84
2022-09-22T13:55:53.867Z,101948.91
2022-09-22T13:58:27.335Z,101950.25
2022-09-22T14:01:14.155Z,101949.53
2022-09-22T14:03:46.601Z,101959.13
2022-09-22T14:06:18.736Z,101952.59
2022-09-22T14:08:49.540Z,101959.34
2022-09-22T14:11:20.291Z,101930.34
2022-09-22T14:14:00.267Z,101941.84
2022-09-22T14:16:35.989Z,101932.84
2022-09-22T14:19:09.989Z,101934.38
2022-09-22T14:21:46.650Z,101931.94
2022-09-22T14:24:17.079Z,101934.25
2022-09-22T14:26:48.240Z,101943.50
2022-09-22T14:29:21.688Z,101931.72
2022-09-22T14:31:55.404Z,101925.84
2022-09-22T14:34:37.074Z,101925.59
2022-09-22T14:37:17.899Z,101914.13
2022-09-22T14:39:46.896Z,101918.69
2022-09-22T14:42:23.034Z,101927.66
2022-09-22T14:44:52.795Z,101926.22
2022-09-22T14:47:30.219Z,101912.84
2022-09-22T14:50:20.309Z,101920.63
2022-09-22T14:53:06.978Z,101906.34
2022-09-22T14:55:39.511Z,101913.06
2022-09-22T14:58:15.874Z,101908.91
2022-09-22T15:01:13.558Z,101908.28
2022-09-22T15:03:56.005Z,101888.72
2022-09-22T15:06:25.291Z,101897.09
2022-09-22T15:08:55.078Z,101883.22
2022-09-22T15:11:48.914Z,101883.28
2022-09-22T15:14:40.933Z,101886.41
2022-09-22T15:17:55.212Z,101891.00
2022-09-22T15:20:29.258Z,101880.88
2022-09-22T15:22:58.799Z,101881.13
2022-09-22T15:25:27.368Z,101877.66
2022-09-22T15:27:55.803Z,101875.84
2022-09-22T15:30:25.590Z,101879.31
2022-09-22T15:32:53.888Z,101877.56
2022-09-22T15:35:27.540Z,101880.13
2022-09-22T15:37:56.391Z,101886.13
2022-09-22T15:40:25.371Z,101887.84
2022-09-22T15:43:12.101Z,101877.66
2022-09-22T15:45:48.702Z,101872.25
2022-09-22T15:48:24.949Z,101865.53
2022-09-22T15:50:56.093Z,101877.81
2022-09-22T15:53:25.394Z,101869.00
2022-09-22T15:55:55.695Z,101877.06
2022-09-22T15:58:24.596Z,101875.06
2022-09-22T16:00:54.087Z,101875.56
2022-09-22T16:03:24.435Z,101863.31
2022-09-22T16:05:57.400Z,101870.63
2022-09-22T16:08:33.558Z,101876.34
2022-09-22T16:11:05.905Z,101872.91
2022-09-22T16:13:34.914Z,101882.03
2022-09-22T16:16:04.547Z,101878.22
2022-09-22T16:18:35.933Z,101872.44
2022-09-22T16:21:23.578Z,101873.84
2022-09-22T16:23:53.728Z,101869.22
2022-09-22T16:26:22.763Z,101886.31
2022-09-22T16:28:54.070Z,101875.25
2022-09-22T16:31:23.388Z,101879.38
2022-09-22T16:33:54.168Z,101875.94
2022-09-22T16:36:25.399Z,101889.56
2022-09-22T16:38:56.003Z,101891.22
2022-09-22T16:41:26.351Z,101888.41
2022-09-22T16:43:56.231Z,101896.09
2022-09-22T16:46:28.987Z,101893.81
2022-09-22T16:48:59.366Z,101900.16
2022-09-22T16:51:29.767Z,101902.81
2022-09-22T16:53:58.956Z,101907.16
2022-09-22T16:56:29.495Z,101905.38
2022-09-22T16:59:01.481Z,101902.19
2022-09-22T17:01:32.078Z,101900.88
2022-09-22T17:04:00.772Z,101902.94
2022-09-22T17:06:32.171Z,101910.13
2022-09-22T17:09:02.076Z,101908.19
2022-09-22T17:11:35.134Z,101910.06
2022-09-22T17:14:12.072Z,101908.31
2022-09-22T17:16:48.807Z,101916.94
2022-09-22T17:19:19.637Z,101920.94
2022-09-22T17:21:51.182Z,101915.41
2022-09-22T17:24:20.619Z,101913.88
2022-09-22T17:26:52.748Z,101910.66
2022-09-22T17:29:23.479Z,101910.88
2022-09-22T17:31:56.667Z,101910.31
2022-09-22T17:34:25.904Z,101907.19
2022-09-22T17:36:56.244Z,101913.59
2022-09-22T17:39:25.783Z,101910.63
2022-09-22T17:41:58.020Z,101913.25
2022-09-22T17:44:28.885Z,101906.81
2022-09-22T17:47:14.602Z,101905.53
2022-09-22T17:50:00.754Z,101900.16
2022-09-22T17:52:48.098Z,101903.44
2022-09-22T17:55:26.771Z,101894.81
2022-09-22T17:57:56.474Z,101900.69
2022-09-22T18:00:26.664Z,101905.44
2022-09-22T18:02:55.733Z,101900.00
2022-09-22T18:05:27.031Z,101899.31
2022-09-22T18:07:58.813Z,101904.44
2022-09-22T18:10:34.227Z,101904.94
2022-09-22T18:13:04.703Z,101901.59
2022-09-22T18:15:36.962Z,101902.97
2022-09-22T18:18:11.282Z,101901.94
2022-09-22T18:20:39.840Z,101901.78
2022-09-22T18:23:12.453Z,101893.97
2022-09-22T18:25:41.606Z,101909.69
2022-09-22T18:28:10.190Z,101896.88
2022-09-22T18:30:40.803Z,101908.06
2022-09-22T18:33:09.870Z,101903.22
2022-09-22T18:35:38.420Z,101901.81
2022-09-22T18:38:07.946Z,101896.81
2022-09-22T18:40:38.135Z,101905.69
2022-09-22T18:43:10.564Z,101902.69
2022-09-22T18:45:39.102Z,101903.03
2022-09-22T18:48:08.360Z,101911.81
2022-09-22T18:50:40.998Z,101911.28
2022-09-22T18:53:10.610Z,101911.69
2022-09-22T18:55:41.204Z,101907.84
2022-09-22T18:58:10.238Z,101911.00
2022-09-22T19:00:38.831Z,101907.53
2022-09-22T19:03:07.991Z,101909.59
2022-09-22T19:05:36.636Z,101915.09
2022-09-22T19:08:05.252Z,101918.25
2022-09-22T19:10:33.851Z,101911.53
2022-09-22T19:13:04.299Z,101914.44
2022-09-22T19:15:33.184Z,101924.59
2022-09-22T19:18:02.086Z,101924.03
2022-09-22T19:20:31.508Z,101921.66
2022-09-22T19:23:00.383Z,101925.19
2022-09-22T19:25:29.535Z,101924.31
2022-09-22T19:27:58.389Z,101920.88
2022-09-22T19:30:31.502Z,101919.16
2022-09-22T19:33:00.610Z,101918.59
2022-09-22T19:35:30.515Z,101930.78
2022-09-22T19:37:58.978Z,101926.66
2022-09-22T19:40:27.618Z,101933.19
2022-09-22T19:42:56.082Z,101929.22
2022-09-22T19:45:27.357Z,101926.59
2022-09-22T19:47:58.742Z,101930.28
2022-09-22T19:50:27.484Z,101925.09
2022-09-22T19:52:55.771Z,101923.50
2022-09-22T19:55:24.455Z,101920.06
2022-09-22T19:57:54.223Z,101920.81
2022-09-22T20:00:26.533Z,101921.88
2022-09-22T20:02:59.443Z,101923.31
2022-09-22T20:05:29.901Z,101917.63
2022-09-22T20:07:58.304Z,101920.72
2022-09-22T20:10:26.709Z,101919.34
2022-09-22T20:12:55.427Z,101917.19
2022-09-22T20:15:24.051Z,101914.88
2022-09-22T20:17:52.497Z,101919.78
2022-09-22T20:20:25.399Z,101919.13
2022-09-22T20:23:00.378Z,101923.72
2022-09-22T20:25:31.906Z,101919.19
2022-09-22T20:28:00.508Z,101923.09
2022-09-22T20:30:29.284Z,101923.41
2022-09-22T20:32:57.737Z,101925.56
2022-09-22T20:35:28.244Z,101927.28
2022-09-22T20:37:58.370Z,101928.03
2022-09-22T20:40:28.050Z,101934.09
2022-09-22T20:42:56.330Z,101927.16
2022-09-22T20:45:25.315Z,101930.25
2022-09-22T20:47:53.647Z,101925.25
2022-09-22T20:50:22.447Z,101932.84
2022-09-22T20:52:52.369Z,101917.19
2022-09-22T20:55:22.174Z,101919.84
2022-09-22T20:57:50.600Z,101925.25
2022-09-22T21:00:19.101Z,101922.09
2022-09-22T21:02:47.587Z,101923.28
2022-09-22T21:05:16.204Z,101925.09
2022-09-22T21:07:44.564Z,101924.63
2022-09-22T21:10:31.843Z,101917.88
2022-09-22T21:13:00.578Z,101911.94
2022-09-22T21:15:30.146Z,101921.97
2022-09-22T21:17:58.818Z,101920.22
2022-09-22T21:20:27.315Z,101917.28
2022-09-22T21:22:55.782Z,101918.09
2022-09-22T21:25:26.363Z,101926.25
2022-09-22T21:27:55.057Z,101925.00
2022-09-22T21:30:23.689Z,101926.16
2022-09-22T21:32:52.059Z,101926.16
2022-09-22T21:35:20.355Z,101920.59
2022-09-22T21:37:48.684Z,101920.34
2022-09-22T21:40:17.729Z,101918.59
2022-09-22T21:42:47.570Z,101914.34
2022-09-22T21:45:15.945Z,101917.94
2022-09-22T21:47:44.739Z,101912.75
2022-09-22T21:50:13.318Z,101912.28
2022-09-22T21:52:44.240Z,101914.06
2022-09-22T21:55:13.403Z,101910.69
2022-09-22T21:57:41.844Z,101911.94
2022-09-22T22:00:16.093Z,101917.44
2022-09-22T22:03:02.311Z,101913.63
2022-09-22T22:05:31.251Z,101910.22
2022-09-22T22:07:59.671Z,101915.69
2022-09-22T22:10:28.104Z,101920.25
2022-09-22T22:12:56.705Z,101911.88
2022-09-22T22:15:26.487Z,101906.22
2022-09-22T22:17:55.338Z,101911.28
2022-09-22T22:20:23.890Z,101916.41
2022-09-22T22:22:52.345Z,101913.69
2022-09-22T22:25:21.061Z,101909.94
2022-09-22T22:27:49.368Z,101915.94
2022-09-22T22:30:18.193Z,101912.22
2022-09-22T22:32:48.226Z,101916.56
2022-09-22T22:35:18.455Z,101906.63
2022-09-22T22:37:47.299Z,101906.94
2022-09-22T22:40:16.540Z,101907.25
2022-09-22T22:42:47.540Z,101903.84
2022-09-22T22:45:16.246Z,101907.53
2022-09-22T22:47:51.614Z,101905.06
2022-09-22T22:50:20.287Z,101913.28
2022-09-22T22:52:49.272Z,101911.81
2022-09-22T22:55:17.703Z,101908.59
2022-09-22T22:57:46.043Z,101907.22
2022-09-22T23:00:15.344Z,101900.53
2022-09-22T23:02:43.983Z,101903.69
2022-09-22T23:05:16.396Z,101898.97
2022-09-22T23:07:45.188Z,101901.25
2022-09-22T23:10:13.897Z,101891.03
2022-09-22T23:12:45.237Z,101898.56
2022-09-22T23:15:14.112Z,101886.75
2022-09-22T23:17:42.573Z,101880.31
2022-09-22T23:20:13.124Z,101881.09
2022-09-22T23:22:44.110Z,101878.25
2022-09-22T23:25:14.534Z,101864.63
2022-09-22T23:27:48.515Z,101863.63
2022-09-22T23:30:19.123Z,101854.66
2022-09-22T23:32:47.357Z,101857.16
2022-09-22T23:35:15.701Z,101849.91
2022-09-22T23:37:45.493Z,101846.13
2022-09-22T23:40:17.457Z,101837.94
2022-09-22T23:42:45.810Z,101840.44
2022-09-22T23:45:15.630Z,101834.06
2022-09-22T23:47:44.098Z,101824.91
2022-09-22T23:50:12.526Z,101832.84
2022-09-22T23:52:41.658Z,101820.06
2022-09-22T23:55:12.047Z,101818.94
2022-09-22T23:57:40.477Z,101815.19
